createdAt,value
2022-09-26T00:01:44.591Z,94813.00
2022-09-26T00:04:22.660Z,95168.00
2022-09-26T00:06:53.375Z,95168.00
2022-09-26T00:09:23.948Z,94812.00
2022-09-26T00:11:52.778Z,95165.00
2022-09-26T00:14:25.753Z,95160.00
2022-09-26T00:16:54.621Z,95169.00
2022-09-26T00:19:24.589Z,95022.00
2022-09-26T00:21:53.113Z,95157.00
2022-09-26T00:24:21.918Z,95160.00
2022-09-26T00:26:50.333Z,95165.00
2022-09-26T00:29:20.573Z,95136.00
2022-09-26T00:31:50.539Z,95141.00
2022-09-26T00:34:21.173Z,95146.00
2022-09-26T00:36:49.633Z,95136.00
2022-09-26T00:39:21.284Z,94940.00
2022-09-26T00:41:49.848Z,95130.00
2022-09-26T00:44:46.119Z,94903.00
2022-09-26T00:47:40.154Z,94918.00
2022-09-26T00:50:18.019Z,95129.00
2022-09-26T00:52:53.877Z,95128.00
2022-09-26T00:55:29.161Z,95153.00
2022-09-26T00:58:06.103Z,95050.00
2022-09-26T01:00:35.208Z,95122.00
2022-09-26T01:03:05.454Z,95162.00
2022-09-26T01:05:35.262Z,95120.00
2022-09-26T01:08:06.721Z,95043.00
2022-09-26T01:10:36.568Z,95120.00
2022-09-26T01:13:05.516Z,95057.00
2022-09-26T01:15:34.628Z,94894.00
2022-09-26T01:18:04.801Z,95123.00
2022-09-26T01:20:53.120Z,95113.00
2022-09-26T01:24:09.949Z,95118.00
2022-09-26T01:27:34.854Z,95115.00
2022-09-26T01:30:15.686Z,95143.00
2022-09-26T01:33:47.530Z,95106.00
2022-09-26T01:37:05.625Z,95107.00
2022-09-26T01:39:51.486Z,95109.00
2022-09-26T01:42:36.476Z,95132.00
2022-09-26T01:45:15.968Z,94995.00
2022-09-26T01:47:53.067Z,95112.00
2022-09-26T01:50:31.844Z,94919.00
2022-09-26T01:53:07.072Z,95111.00
2022-09-26T01:55:41.423Z,95120.00
2022-09-26T01:58:17.796Z,95023.00
2022-09-26T02:00:51.422Z,94903.00
2022-09-26T02:03:27.572Z,95143.00
2022-09-26T02:06:01.383Z,95117.00
2022-09-26T02:08:37.892Z,95117.00
2022-09-26T02:11:12.449Z,94703.00
2022-09-26T02:13:52.353Z,94928.00
2022-09-26T02:16:35.449Z,95131.00
2022-09-26T02:19:13.890Z,94974.00
2022-09-26T02:21:44.696Z,95119.00
2022-09-26T02:24:13.217Z,95114.00
2022-09-26T02:26:42.530Z,94948.00
2022-09-26T02:29:14.238Z,95116.00
2022-09-26T02:31:49.809Z,94962.00
2022-09-26T02:34:18.604Z,94938.00
2022-09-26T02:36:47.004Z,94984.00
2022-09-26T02:39:15.705Z,95039.00
2022-09-26T02:41:51.484Z,95054.00
2022-09-26T02:44:56.496Z,95033.00
2022-09-26T02:48:09.557Z,95109.00
2022-09-26T02:50:56.638Z,94738.00
2022-09-26T02:53:50.977Z,95108.00
2022-09-26T02:56:31.098Z,95095.00
2022-09-26T02:59:08.750Z,95105.00
2022-09-26T03:01:45.243Z,94948.00
2022-09-26T03:04:24.996Z,95101.00
2022-09-26T03:06:58.835Z,95019.00
2022-09-26T03:09:30.244Z,94874.00
2022-09-26T03:12:03.841Z,95133.00
2022-09-26T03:14:35.536Z,95022.00
2022-09-26T03:17:05.391Z,94745.00
2022-09-26T03:19:43.209Z,94621.00
2022-09-26T03:22:12.117Z,95091.00
2022-09-26T03:24:43.851Z,95094.00
2022-09-26T03:27:14.796Z,95092.00
2022-09-26T03:29:43.658Z,95105.00
2022-09-26T03:32:12.125Z,95084.00
2022-09-26T03:34:42.148Z,95078.00
2022-09-26T03:37:11.356Z,94945.00
2022-09-26T03:39:39.747Z,95082.00
2022-09-26T03:42:08.208Z,94969.00
2022-09-26T03:44:36.669Z,94866.00
2022-09-26T03:47:05.371Z,95117.00
2022-09-26T03:49:33.799Z,95059.00
2022-09-26T03:52:03.728Z,94972.00
2022-09-26T03:54:32.176Z,94401.00
2022-09-26T03:57:00.550Z,95064.00
2022-09-26T03:59:29.043Z,94792.00
2022-09-26T04:01:57.535Z,95045.00
2022-09-26T04:04:26.817Z,95041.00
2022-09-26T04:06:55.266Z,95043.00
2022-09-26T04:09:25.099Z,94808.00
2022-09-26T04:11:54.377Z,94964.00
2022-09-26T04:14:22.842Z,95019.00
2022-09-26T04:16:51.373Z,95015.00
2022-09-26T04:19:19.837Z,95015.00
2022-09-26T04:21:48.609Z,95014.00
2022-09-26T04:24:17.909Z,94899.00
2022-09-26T04:26:47.778Z,94841.00
2022-09-26T04:29:16.434Z,94788.00
2022-09-26T04:31:44.961Z,95010.00
2022-09-26T04:34:14.958Z,95034.00
2022-09-26T04:36:44.036Z,94862.00
2022-09-26T04:39:12.728Z,95020.00
2022-09-26T04:41:41.380Z,94989.00
2022-09-26T04:44:12.802Z,94896.00
2022-09-26T04:46:41.205Z,94803.00
2022-09-26T04:49:11.339Z,95022.00
2022-09-26T04:51:39.769Z,95016.00
2022-09-26T04:54:08.647Z,95008.00
2022-09-26T04:56:37.141Z,95012.00
2022-09-26T04:59:05.579Z,95011.00
2022-09-26T05:01:35.401Z,94246.00
2022-09-26T05:04:04.378Z,94925.00
2022-09-26T05:06:32.748Z,95022.00
2022-09-26T05:09:01.575Z,95004.00
2022-09-26T05:11:30.144Z,95022.00
2022-09-26T05:13:58.828Z,95000.00
2022-09-26T05:16:28.248Z,95042.00
2022-09-26T05:18:58.101Z,94994.00
2022-09-26T05:21:26.528Z,95002.00
2022-09-26T05:24:12.376Z,94637.00
2022-09-26T05:26:45.259Z,95007.00
2022-09-26T05:29:14.516Z,95007.00
2022-09-26T05:31:43.674Z,95003.00
2022-09-26T05:34:19.616Z,95023.00
2022-09-26T05:36:48.949Z,95004.00
2022-09-26T05:39:36.818Z,95013.00
2022-09-26T05:42:09.509Z,95000.00
2022-09-26T05:44:39.870Z,94996.00
2022-09-26T05:47:08.977Z,95002.00
2022-09-26T05:49:38.937Z,94768.00
2022-09-26T05:52:07.477Z,95000.00
2022-09-26T05:54:35.850Z,94999.00
2022-09-26T05:57:04.965Z,94898.00
2022-09-26T05:59:33.656Z,94999.00
2022-09-26T06:02:02.189Z,94996.00
2022-09-26T06:04:31.757Z,95020.00
2022-09-26T06:07:01.634Z,94990.00
2022-09-26T06:09:30.041Z,94987.00
2022-09-26T06:11:58.430Z,94750.00
2022-09-26T06:14:27.266Z,94994.00
2022-09-26T06:16:55.820Z,94997.00
2022-09-26T06:19:24.470Z,94812.00
2022-09-26T06:21:53.014Z,94996.00
2022-09-26T06:24:22.922Z,94991.00
2022-09-26T06:26:52.354Z,94986.00
2022-09-26T06:29:21.014Z,94993.00
2022-09-26T06:31:49.470Z,94979.00
2022-09-26T06:34:17.907Z,94988.00
2022-09-26T06:36:47.078Z,94983.00
2022-09-26T06:39:16.224Z,94982.00
2022-09-26T06:41:46.528Z,94984.00
2022-09-26T06:44:14.932Z,94977.00
2022-09-26T06:46:43.355Z,94979.00
2022-09-26T06:49:11.848Z,94976.00
2022-09-26T06:51:40.242Z,94973.00
2022-09-26T06:54:08.714Z,94973.00
2022-09-26T06:56:37.199Z,94969.00
2022-09-26T06:59:07.186Z,94974.00
2022-09-26T07:01:35.937Z,94975.00
2022-09-26T07:04:05.226Z,94971.00
2022-09-26T07:06:33.831Z,94826.00
2022-09-26T07:09:04.844Z,94959.00
2022-09-26T07:11:56.298Z,94957.00
2022-09-26T07:14:24.636Z,94955.00
2022-09-26T07:16:53.091Z,94959.00
2022-09-26T07:19:21.493Z,94951.00
2022-09-26T07:21:50.299Z,94958.00
2022-09-26T07:24:18.916Z,94952.00
2022-09-26T07:26:47.327Z,94957.00
2022-09-26T07:29:15.935Z,94961.00
2022-09-26T07:31:45.930Z,94951.00
2022-09-26T07:34:18.079Z,94953.00
2022-09-26T07:36:47.491Z,94511.00
2022-09-26T07:39:16.675Z,94939.00
2022-09-26T07:41:46.093Z,94946.00
2022-09-26T07:47:22.331Z,95002.00
2022-09-26T07:50:08.438Z,94914.00
2022-09-26T07:52:37.288Z,94934.00
2022-09-26T07:55:06.406Z,94424.00
2022-09-26T07:57:35.610Z,94718.00
2022-09-26T08:00:05.989Z,94945.00
2022-09-26T08:02:36.254Z,94941.00
2022-09-26T08:05:06.630Z,94859.00
2022-09-26T08:07:35.634Z,94938.00
2022-09-26T08:10:06.680Z,94945.00
2022-09-26T08:12:38.698Z,94939.00
2022-09-26T08:15:09.438Z,94937.00
2022-09-26T08:17:39.675Z,94941.00
2022-09-26T08:20:09.484Z,94967.00
2022-09-26T08:22:37.939Z,94953.00
2022-09-26T08:25:08.074Z,94934.00
2022-09-26T08:27:36.706Z,94929.00
2022-09-26T08:30:07.739Z,94606.00
2022-09-26T08:32:37.296Z,94945.00
2022-09-26T08:35:10.555Z,94954.00
2022-09-26T08:37:39.523Z,94932.00
2022-09-26T08:40:09.474Z,94786.00
2022-09-26T08:42:54.759Z,94937.00
2022-09-26T08:46:11.431Z,94928.00
2022-09-26T08:48:59.682Z,94858.00
2022-09-26T08:51:36.296Z,94925.00
2022-09-26T08:54:15.958Z,94928.00
2022-09-26T08:56:49.594Z,94920.00
2022-09-26T08:59:28.063Z,94910.00
2022-09-26T09:02:02.822Z,94895.00
2022-09-26T09:04:43.085Z,94871.00
2022-09-26T09:07:23.594Z,94897.00
2022-09-26T09:09:57.661Z,94858.00
2022-09-26T09:12:42.748Z,94890.00
2022-09-26T09:15:34.569Z,94891.00
2022-09-26T09:18:29.383Z,94895.00
2022-09-26T09:21:12.886Z,94881.00
2022-09-26T09:24:08.830Z,94815.00
2022-09-26T09:30:01.161Z,94906.00
2022-09-26T09:32:42.179Z,94879.00
2022-09-26T09:35:17.303Z,94880.00
2022-09-26T09:37:51.630Z,94884.00
2022-09-26T09:40:31.745Z,94733.00
2022-09-26T09:43:07.163Z,95002.00
2022-09-26T09:45:45.210Z,94886.00
2022-09-26T09:48:15.996Z,94879.00
2022-09-26T09:51:01.947Z,94351.00
2022-09-26T09:53:51.160Z,94875.00
2022-09-26T09:56:34.073Z,94752.00
2022-09-26T09:59:27.983Z,94803.00
2022-09-26T10:02:16.232Z,94846.00
2022-09-26T10:04:50.773Z,94879.00
2022-09-26T10:07:19.189Z,94859.00
2022-09-26T10:09:51.886Z,94860.00
2022-09-26T10:12:30.562Z,94712.00
2022-09-26T10:15:06.801Z,94799.00
2022-09-26T10:17:35.446Z,94862.00
2022-09-26T10:20:04.073Z,94857.00
2022-09-26T10:22:38.149Z,94852.00
2022-09-26T10:25:17.165Z,94454.00
2022-09-26T10:27:53.641Z,94853.00
2022-09-26T10:30:30.312Z,94786.00
2022-09-26T10:33:01.681Z,94870.00
2022-09-26T10:35:42.584Z,94598.00
2022-09-26T10:38:22.796Z,94851.00
2022-09-26T10:40:55.507Z,94841.00
2022-09-26T10:43:31.882Z,94846.00
2022-09-26T10:46:07.220Z,94848.00
2022-09-26T10:48:48.045Z,94838.00
2022-09-26T10:51:29.248Z,94837.00
2022-09-26T10:54:05.768Z,94834.00
2022-09-26T10:56:44.066Z,94764.00
2022-09-26T10:59:18.474Z,94832.00
2022-09-26T11:01:52.062Z,94670.00
2022-09-26T11:04:39.187Z,94799.00
2022-09-26T11:07:12.082Z,94834.00
2022-09-26T11:09:41.065Z,94825.00
2022-09-26T11:12:25.493Z,94602.00
2022-09-26T11:15:03.844Z,94848.00
2022-09-26T11:17:45.237Z,94810.00
2022-09-26T11:20:27.410Z,94619.00
2022-09-26T11:23:11.388Z,94829.00
2022-09-26T11:25:57.754Z,94740.00
2022-09-26T11:28:34.419Z,94797.00
2022-09-26T11:31:29.157Z,94831.00
2022-09-26T11:34:05.439Z,94782.00
2022-09-26T11:37:03.689Z,94775.00
2022-09-26T11:39:57.306Z,94775.00
2022-09-26T11:42:45.077Z,94509.00
2022-09-26T11:45:27.381Z,94799.00
2022-09-26T11:48:37.624Z,94773.00
2022-09-26T11:51:24.823Z,94754.00
2022-09-26T11:54:15.623Z,94758.00
2022-09-26T11:56:59.962Z,94752.00
2022-09-26T12:00:12.135Z,94741.00
2022-09-26T12:03:26.089Z,94734.00
2022-09-26T12:06:01.817Z,94732.00
2022-09-26T12:09:00.488Z,94536.00
2022-09-26T12:11:40.300Z,94601.00
2022-09-26T12:14:34.751Z,94728.00
2022-09-26T12:17:16.232Z,94714.00
2022-09-26T12:19:55.799Z,94708.00
2022-09-26T12:22:36.147Z,94733.00
2022-09-26T12:25:28.008Z,94706.00
2022-09-26T12:28:16.381Z,94688.00
2022-09-26T12:31:02.965Z,94381.00
2022-09-26T12:34:09.895Z,94695.00
2022-09-26T12:37:01.962Z,94429.00
2022-09-26T12:40:14.665Z,94668.00
2022-09-26T12:43:17.843Z,94674.00
2022-09-26T12:46:19.283Z,94666.00
2022-09-26T12:49:12.338Z,94662.00
2022-09-26T12:51:48.293Z,94664.00
2022-09-26T12:55:04.094Z,94661.00
2022-09-26T12:57:51.193Z,94658.00
2022-09-26T13:00:23.062Z,94660.00
2022-09-26T13:03:55.836Z,94655.00
2022-09-26T13:07:17.942Z,94367.00
2022-09-26T13:10:17.468Z,94435.00
2022-09-26T13:13:32.647Z,94570.00
2022-09-26T13:16:31.722Z,94638.00
2022-09-26T13:19:12.008Z,94676.00
2022-09-26T13:21:49.835Z,94478.00
2022-09-26T13:24:26.817Z,94630.00
2022-09-26T13:27:01.352Z,94634.00
2022-09-26T13:29:37.551Z,94623.00
2022-09-26T13:32:22.923Z,94624.00
2022-09-26T13:35:04.106Z,94618.00
2022-09-26T13:37:55.591Z,94543.00
2022-09-26T13:40:42.275Z,94620.00
2022-09-26T13:43:26.827Z,94617.00
2022-09-26T13:46:07.802Z,94648.00
2022-09-26T13:48:51.880Z,94607.00
2022-09-26T13:51:27.770Z,94604.00
2022-09-26T13:54:06.818Z,94605.00
2022-09-26T13:56:50.752Z,94650.00
2022-09-26T13:59:54.282Z,94510.00
2022-09-26T14:02:29.551Z,94607.00
2022-09-26T14:05:50.968Z,94606.00
2022-09-26T14:08:51.691Z,94601.00
2022-09-26T14:11:30.411Z,94534.00
2022-09-26T14:14:28.321Z,94601.00
2022-09-26T14:17:01.726Z,94595.00
2022-09-26T14:19:36.877Z,94595.00
2022-09-26T14:22:27.610Z,94590.00
2022-09-26T14:24:58.318Z,94591.00
2022-09-26T14:27:48.038Z,94587.00
2022-09-26T14:30:30.702Z,94385.00
2022-09-26T14:33:10.345Z,94348.00
2022-09-26T14:35:39.667Z,94579.00
2022-09-26T14:38:17.114Z,94532.00
2022-09-26T14:40:57.209Z,94150.00
2022-09-26T14:43:30.637Z,94574.00
2022-09-26T14:46:06.928Z,94437.00
2022-09-26T14:48:38.792Z,94586.00
2022-09-26T14:51:26.669Z,94585.00
2022-09-26T14:54:01.137Z,94577.00
2022-09-26T14:56:44.288Z,94601.00
2022-09-26T14:59:40.512Z,94612.00
2022-09-26T15:02:38.387Z,94569.00
2022-09-26T15:05:24.547Z,94575.00
2022-09-26T15:07:56.981Z,94561.00
2022-09-26T15:10:40.235Z,94627.00
2022-09-26T15:13:32.584Z,94616.00
2022-09-26T15:16:16.647Z,94582.00
2022-09-26T15:18:51.298Z,94567.00
2022-09-26T15:21:32.927Z,94297.00
2022-09-26T15:24:06.488Z,94574.00
2022-09-26T15:26:38.344Z,94576.00
2022-09-26T15:29:09.962Z,94578.00
2022-09-26T15:31:41.961Z,94571.00
2022-09-26T15:34:17.864Z,94600.00
2022-09-26T15:36:53.857Z,94420.00
2022-09-26T15:39:42.058Z,94562.00
2022-09-26T15:42:46.398Z,94567.00
2022-09-26T15:45:30.400Z,94587.00
2022-09-26T15:48:01.099Z,94558.00
2022-09-26T15:50:39.767Z,94565.00
2022-09-26T15:53:21.933Z,94570.00
2022-09-26T15:55:56.818Z,94463.00
2022-09-26T15:58:35.315Z,94627.00
2022-09-26T16:01:04.950Z,94456.00
2022-09-26T16:03:57.223Z,94562.00
2022-09-26T16:06:32.219Z,94602.00
2022-09-26T16:09:08.119Z,94192.00
2022-09-26T16:11:46.386Z,94484.00
2022-09-26T16:14:41.365Z,94560.00
2022-09-26T16:17:23.870Z,94560.00
2022-09-26T16:19:55.624Z,94258.00
2022-09-26T16:22:40.192Z,94559.00
2022-09-26T16:25:36.303Z,94556.00
2022-09-26T16:28:39.571Z,94518.00
2022-09-26T16:31:27.172Z,94547.00
2022-09-26T16:33:58.639Z,94539.00
2022-09-26T16:36:30.723Z,94543.00
2022-09-26T16:39:03.665Z,94613.00
2022-09-26T16:42:00.182Z,94539.00
2022-09-26T16:44:35.337Z,94572.00
2022-09-26T16:47:09.373Z,94253.00
2022-09-26T16:49:46.760Z,94154.00
2022-09-26T16:52:28.393Z,94528.00
2022-09-26T16:55:00.950Z,94525.00
2022-09-26T16:57:33.270Z,94531.00
2022-09-26T17:00:24.384Z,94532.00
2022-09-26T17:02:52.814Z,94530.00
2022-09-26T17:05:22.916Z,94519.00
2022-09-26T17:07:51.816Z,94523.00
2022-09-26T17:10:26.963Z,94530.00
2022-09-26T17:12:56.408Z,94650.00
2022-09-26T17:15:30.083Z,94531.00
2022-09-26T17:18:01.034Z,94514.00
2022-09-26T17:20:29.943Z,94513.00
2022-09-26T17:23:08.024Z,94517.00
2022-09-26T17:25:53.018Z,94400.00
2022-09-26T17:28:31.780Z,94515.00
2022-09-26T17:31:06.314Z,94508.00
2022-09-26T17:33:40.467Z,94489.00
2022-09-26T17:36:18.934Z,94551.00
2022-09-26T17:38:47.417Z,94066.00
2022-09-26T17:41:17.644Z,94521.00
2022-09-26T17:43:46.250Z,94496.00
2022-09-26T17:46:16.737Z,94494.00
2022-09-26T17:48:46.061Z,94495.00
2022-09-26T17:51:15.119Z,94002.00
2022-09-26T17:53:50.834Z,94373.00
2022-09-26T17:56:21.650Z,94486.00
2022-09-26T17:58:52.102Z,94481.00
2022-09-26T18:01:25.768Z,94483.00
2022-09-26T18:04:02.609Z,94442.00
2022-09-26T18:06:34.123Z,94524.00
2022-09-26T18:09:10.031Z,94477.00
2022-09-26T18:11:41.949Z,94466.00
2022-09-26T18:14:15.552Z,94351.00
2022-09-26T18:16:44.929Z,94315.00
2022-09-26T18:19:13.496Z,94223.00
2022-09-26T18:21:41.978Z,94445.00
2022-09-26T18:24:20.091Z,94439.00
2022-09-26T18:26:51.849Z,94442.00
2022-09-26T18:29:27.610Z,94433.00
2022-09-26T18:31:57.108Z,94207.00
2022-09-26T18:34:26.060Z,94439.00
2022-09-26T18:36:57.061Z,94441.00
2022-09-26T18:39:25.909Z,94434.00
2022-09-26T18:42:02.613Z,94207.00
2022-09-26T18:44:35.047Z,94447.00
2022-09-26T18:47:06.870Z,94433.00
2022-09-26T18:49:39.156Z,94425.00
2022-09-26T18:52:15.316Z,94433.00
2022-09-26T18:54:45.384Z,94429.00
2022-09-26T18:57:33.842Z,94425.00
2022-09-26T19:00:02.922Z,94417.00
2022-09-26T19:02:38.480Z,94413.00
2022-09-26T19:05:11.494Z,93886.00
2022-09-26T19:07:40.549Z,94449.00
2022-09-26T19:10:17.071Z,94187.00
2022-09-26T19:12:46.921Z,94418.00
2022-09-26T19:15:16.767Z,94083.00
2022-09-26T19:17:45.202Z,94416.00
2022-09-26T19:20:13.699Z,94325.00
2022-09-26T19:22:42.226Z,94405.00
2022-09-26T19:25:11.879Z,94160.00
2022-09-26T19:27:52.164Z,94401.00
2022-09-26T19:30:22.802Z,94170.00
2022-09-26T19:32:54.216Z,94399.00
2022-09-26T19:35:27.128Z,94394.00
2022-09-26T19:37:55.660Z,94389.00
2022-09-26T19:40:25.821Z,94392.00
2022-09-26T19:42:57.387Z,94402.00
2022-09-26T19:45:32.348Z,94387.00
2022-09-26T19:48:01.663Z,94476.00
2022-09-26T19:50:33.695Z,94375.00
2022-09-26T19:53:04.515Z,94373.00
2022-09-26T19:55:33.577Z,94164.00
2022-09-26T19:58:14.120Z,94264.00
2022-09-26T20:00:43.596Z,94359.00
2022-09-26T20:03:18.539Z,94348.00
2022-09-26T20:05:49.401Z,93988.00
2022-09-26T20:08:22.127Z,94013.00
2022-09-26T20:10:51.651Z,94350.00
2022-09-26T20:13:21.759Z,94349.00
2022-09-26T20:15:52.194Z,93802.00
2022-09-26T20:18:26.261Z,94346.00
2022-09-26T20:20:58.037Z,94343.00
2022-09-26T20:23:29.775Z,94334.00
2022-09-26T20:25:59.201Z,94325.00
2022-09-26T20:28:31.301Z,94326.00
2022-09-26T20:31:04.530Z,94076.00
2022-09-26T20:33:36.846Z,94323.00
2022-09-26T20:36:08.903Z,94317.00
2022-09-26T20:38:47.477Z,94323.00
2022-09-26T20:41:26.635Z,94215.00
2022-09-26T20:44:06.114Z,94182.00
2022-09-26T20:46:43.202Z,94176.00
2022-09-26T20:49:20.102Z,94172.00
2022-09-26T20:51:52.846Z,94288.00
2022-09-26T20:54:30.775Z,94193.00
2022-09-26T20:57:01.829Z,94234.00
2022-09-26T20:59:36.450Z,93602.00
2022-09-26T21:02:31.213Z,94264.00
2022-09-26T21:05:02.481Z,93914.00
2022-09-26T21:07:34.351Z,94010.00
2022-09-26T21:10:23.585Z,94295.00
2022-09-26T21:12:56.413Z,93962.00
2022-09-26T21:15:31.712Z,94295.00
2022-09-26T21:18:03.758Z,94250.00
2022-09-26T21:20:35.015Z,94349.00
2022-09-26T21:23:04.118Z,94238.00
2022-09-26T21:25:33.446Z,94302.00
2022-09-26T21:28:07.834Z,94272.00
2022-09-26T21:30:37.873Z,93684.00
2022-09-26T21:33:06.266Z,94233.00
2022-09-26T21:35:34.641Z,94229.00
2022-09-26T21:38:03.130Z,94229.00
2022-09-26T21:40:38.709Z,94184.00
2022-09-26T21:43:14.245Z,94258.00
2022-09-26T21:45:46.143Z,93979.00
2022-09-26T21:48:16.506Z,94220.00
2022-09-26T21:50:56.735Z,94213.00
2022-09-26T21:53:32.342Z,94210.00
2022-09-26T21:56:08.199Z,93923.00
2022-09-26T21:58:40.426Z,94203.00
2022-09-26T22:01:10.469Z,94204.00
2022-09-26T22:03:39.252Z,94202.00
2022-09-26T22:06:10.582Z,94200.00
2022-09-26T22:08:40.850Z,94261.00
2022-09-26T22:11:10.709Z,93928.00
2022-09-26T22:13:40.363Z,94193.00
2022-09-26T22:16:13.726Z,94187.00
2022-09-26T22:18:42.786Z,93802.00
2022-09-26T22:21:12.949Z,94176.00
2022-09-26T22:23:41.662Z,94176.00
2022-09-26T22:26:11.601Z,94180.00
2022-09-26T22:28:40.001Z,94160.00
2022-09-26T22:31:09.892Z,94164.00
2022-09-26T22:33:38.669Z,94154.00
2022-09-26T22:36:07.623Z,94160.00
2022-09-26T22:38:40.283Z,93947.00
2022-09-26T22:41:09.384Z,94152.00
2022-09-26T22:43:37.878Z,94195.00
2022-09-26T22:46:10.951Z,94177.00
2022-09-26T22:48:42.374Z,93492.00
2022-09-26T22:51:11.263Z,94144.00
2022-09-26T22:53:44.566Z,94146.00
2022-09-26T22:56:15.560Z,94136.00
2022-09-26T22:58:46.235Z,94198.00
2022-09-26T23:01:19.513Z,94151.00
2022-09-26T23:03:48.003Z,94150.00
2022-09-26T23:06:17.041Z,94140.00
2022-09-26T23:08:45.817Z,94053.00
2022-09-26T23:11:17.236Z,94116.00
2022-09-26T23:13:47.245Z,94117.00
2022-09-26T23:16:23.020Z,94111.00
2022-09-26T23:19:00.615Z,94113.00
2022-09-26T23:21:32.412Z,94095.00
2022-09-26T23:24:11.921Z,93548.00
2022-09-26T23:26:42.748Z,93957.00
2022-09-26T23:29:13.879Z,94077.00
2022-09-26T23:31:45.223Z,94119.00
2022-09-26T23:34:14.259Z,93965.00
2022-09-26T23:36:44.664Z,93453.00
2022-09-26T23:39:17.471Z,94064.00
2022-09-26T23:41:47.968Z,93860.00
2022-09-26T23:44:18.514Z,93836.00
2022-09-26T23:46:50.417Z,93430.00
2022-09-26T23:49:20.847Z,94158.00
2022-09-26T23:51:56.058Z,93814.00
2022-09-26T23:54:27.154Z,93978.00
2022-09-26T23:56:58.382Z,93883.00
2022-09-26T23:59:29.495Z,93663.00
